Jim Hamilton L.B. Owens Airport
KCUB : now visible

Airfield :











YOU CAN JOIN US ON...

 
LOGIN :

Register | Disclaimer

   EN    FR    IT 

 









Legend :    VFR   Marginal VFR   IFR   Intensive IFR   Very Intensive IFR
Visi :
Ceiling :
>= 8 km
>= 3000ft
5 to 8 km
1000 to 3000 ft
1500m to 5 km
500 to 1000 ft
800 to 1500m
200 to 500 ft
< 800m
< 200 ft
Symbols :   Thunderstorms  Fog  Heavy snow  Heavy precipitations  Wind > 20 kt







- Airport Elevation : 193 ft


KCUB - Jim Hamilton L.B. Owens

CURRENT METAR :
  • 252353Z AUTO 19003KT 10SM CLR 26/14 A2987 RMK AO2 SLP113 T02610144 10306 20261 55003

EXPIRED METARs :
  • 252253Z AUTO 00000KT 10SM CLR 27/14 A2986 RMK AO2 SLP111 T02720139
  • 252153Z AUTO 22006KT 10SM CLR 28/12 A2987 RMK AO2 SLP113 T02780122
  • 252053Z AUTO 24007KT 10SM CLR 28/11 A2988 RMK AO2 SLP116 T02830106 56010

TAF KCUB
Valid from the 26 at 00:00 until the 27 at 00:00 UTC


252324Z 2600/2624 20007KT P6SM SCT040 OVC100
FM261400 24008G18KT P6SM SCT020 OVC035
FM261600 27018G28KT P6SM BKN040
KZJX FIR / North America



MET'MAP, your aeronautical weather chart ! - Copyright ORBIFLY December 2007 - Disclaimer

ORBIFLY MET'MAP TEAM :

Programming & Development : Alexandra Zaïnal
Concept & Development : Baudouin d'Aumeries
Co-Development & Prog : Marc-Olivier Méhu
Technical & hardware support : Manuel Goepfert

Contact : metmap@orbifly.com




SOURCES & CREDITS :

   NOAA       Earth
Advisory